createdAt,value
2019-01-14T00:01:05.848Z,2.00
2019-01-14T00:03:35.346Z,1.67
2019-01-14T00:06:10.075Z,1.50
2019-01-14T00:08:36.947Z,1.80
2019-01-14T00:11:06.491Z,1.90
2019-01-14T00:13:36.209Z,1.60
2019-01-14T00:16:05.841Z,1.10
2019-01-14T00:18:35.407Z,1.40
2019-01-14T00:21:05.212Z,1.63
2019-01-14T00:23:34.781Z,1.30
2019-01-14T00:26:04.827Z,1.70
2019-01-14T00:28:34.360Z,1.60
2019-01-14T00:31:03.910Z,1.80
2019-01-14T00:33:34.492Z,1.50
2019-01-14T00:36:04.073Z,1.23
2019-01-14T00:38:33.934Z,1.57
2019-01-14T00:41:03.574Z,1.90
2019-01-14T00:43:33.327Z,1.93
2019-01-14T00:46:03.201Z,1.40
2019-01-14T00:48:32.837Z,1.80
2019-01-14T00:51:02.454Z,2.50
2019-01-14T00:53:32.116Z,1.40
2019-01-14T00:56:01.754Z,1.40
2019-01-14T00:58:31.374Z,1.33
2019-01-14T01:01:01.022Z,1.50
2019-01-14T01:03:30.711Z,1.20
2019-01-14T01:06:00.223Z,1.10
2019-01-14T01:08:29.798Z,1.40
2019-01-14T01:10:59.338Z,1.23
2019-01-14T01:13:28.856Z,1.33
2019-01-14T01:15:58.429Z,1.30
2019-01-14T01:18:28.047Z,1.00
2019-01-14T01:20:57.791Z,1.00
2019-01-14T01:23:27.398Z,1.20
2019-01-14T01:25:56.970Z,1.43
2019-01-14T01:28:26.490Z,1.23
2019-01-14T01:30:56.095Z,1.50
2019-01-14T01:33:30.314Z,1.13
2019-01-14T01:35:59.855Z,1.43
2019-01-14T01:38:30.494Z,1.57
2019-01-14T01:41:00.127Z,1.80
2019-01-14T01:43:29.720Z,1.50
2019-01-14T01:45:59.227Z,1.10
2019-01-14T01:48:28.936Z,1.23
2019-01-14T01:50:58.904Z,1.27
2019-01-14T01:53:28.528Z,1.20
2019-01-14T01:55:58.124Z,1.00
2019-01-14T01:58:27.628Z,0.70
2019-01-14T02:00:57.439Z,0.90
2019-01-14T02:03:27.326Z,1.10
2019-01-14T02:05:56.955Z,0.80
2019-01-14T02:08:29.509Z,1.10
2019-01-14T02:10:59.195Z,1.17
2019-01-14T02:13:28.749Z,1.03
2019-01-14T02:15:58.267Z,1.10
2019-01-14T02:18:27.844Z,1.17
2019-01-14T02:20:57.330Z,1.10
2019-01-14T02:23:29.976Z,1.07
2019-01-14T02:26:00.252Z,1.20
2019-01-14T02:28:30.078Z,1.50
2019-01-14T02:30:59.563Z,1.97
2019-01-14T02:33:29.157Z,2.03
2019-01-14T02:35:59.094Z,2.63
2019-01-14T02:38:28.579Z,2.47
2019-01-14T02:40:58.286Z,2.00
2019-01-14T02:43:28.890Z,2.23
2019-01-14T02:45:58.768Z,2.43
2019-01-14T02:48:28.739Z,2.20
2019-01-14T02:50:58.369Z,2.30
2019-01-14T02:53:28.080Z,2.60
2019-01-14T02:55:58.687Z,2.30
2019-01-14T02:58:28.410Z,2.33
2019-01-14T03:00:58.084Z,3.10
2019-01-14T03:03:28.725Z,2.00
2019-01-14T03:21:30.836Z,2.43
2019-01-14T03:24:04.102Z,2.20
2019-01-14T03:26:43.858Z,2.47
2019-01-14T03:29:13.432Z,1.87
2019-01-14T03:31:42.964Z,2.60
2019-01-14T03:34:37.738Z,2.20
2019-01-14T03:37:07.337Z,1.77
2019-01-14T03:39:45.876Z,2.63
2019-01-14T03:42:15.814Z,2.50
2019-01-14T03:44:45.378Z,2.30
2019-01-14T03:47:14.970Z,2.00
2019-01-14T03:49:44.470Z,2.30
2019-01-14T03:52:14.103Z,2.30
2019-01-14T03:54:53.057Z,2.70
2019-01-14T03:57:22.586Z,1.70
2019-01-14T03:59:52.133Z,3.10
2019-01-14T04:02:22.069Z,2.20
2019-01-14T04:04:51.623Z,2.40
2019-01-14T04:07:21.335Z,2.40
2019-01-14T04:09:51.288Z,2.67
2019-01-14T04:12:20.985Z,2.03
2019-01-14T04:14:51.878Z,2.60
2019-01-14T04:17:21.689Z,2.37
2019-01-14T04:19:51.255Z,2.43
2019-01-14T04:22:20.773Z,2.10
2019-01-14T04:24:50.373Z,2.37
2019-01-14T04:27:19.923Z,2.63
2019-01-14T04:29:49.550Z,2.47
2019-01-14T04:32:19.106Z,2.37
2019-01-14T04:34:48.675Z,2.57
2019-01-14T04:37:21.710Z,2.10
2019-01-14T04:39:49.457Z,2.70
2019-01-14T04:42:20.130Z,2.57
2019-01-14T04:44:49.725Z,3.80
2019-01-14T04:47:19.572Z,2.20
2019-01-14T04:49:49.126Z,2.57
2019-01-14T04:52:18.709Z,4.20
2019-01-14T04:54:48.177Z,2.70
2019-01-14T04:57:17.777Z,3.20
2019-01-14T04:59:47.270Z,2.50
2019-01-14T05:02:16.936Z,2.50
2019-01-14T05:04:46.452Z,2.60
2019-01-14T05:07:16.111Z,2.00
2019-01-14T05:09:45.715Z,3.77
2019-01-14T05:12:15.423Z,2.47
2019-01-14T05:14:44.968Z,2.63
2019-01-14T05:17:14.531Z,3.60
2019-01-14T05:19:44.120Z,2.70
2019-01-14T05:22:13.624Z,3.30
2019-01-14T05:24:43.262Z,2.77
2019-01-14T05:27:12.756Z,2.60
2019-01-14T05:29:49.179Z,3.27
2019-01-14T05:32:18.808Z,2.60
2019-01-14T05:34:48.345Z,2.90
2019-01-14T05:37:17.895Z,3.10
2019-01-14T05:39:47.563Z,2.60
2019-01-14T05:42:17.211Z,2.17
2019-01-14T05:44:46.816Z,3.50
2019-01-14T05:47:16.496Z,2.90
2019-01-14T05:49:46.280Z,3.13
2019-01-14T05:52:15.820Z,2.40
2019-01-14T05:54:46.415Z,3.27
2019-01-14T05:57:16.027Z,3.00
2019-01-14T05:59:45.608Z,3.10
2019-01-14T06:02:16.138Z,3.67
2019-01-14T06:04:45.895Z,3.17
2019-01-14T06:07:16.528Z,3.13
2019-01-14T06:09:46.106Z,4.20
2019-01-14T06:12:15.752Z,3.37
2019-01-14T06:14:45.263Z,3.27
2019-01-14T06:17:14.864Z,2.83
2019-01-14T06:19:44.587Z,3.83
2019-01-14T06:22:15.127Z,3.30
2019-01-14T06:24:44.750Z,3.70
2019-01-14T06:27:14.287Z,3.20
2019-01-14T06:29:43.912Z,3.10
2019-01-14T06:32:13.464Z,3.10
2019-01-14T06:34:43.414Z,3.30
2019-01-14T06:37:13.073Z,4.47
2019-01-14T06:39:42.638Z,4.70
2019-01-14T06:42:12.528Z,4.50
2019-01-14T06:44:42.113Z,4.00
2019-01-14T06:47:11.810Z,4.03
2019-01-14T06:49:41.343Z,3.97
2019-01-14T06:52:11.046Z,3.53
2019-01-14T06:54:40.539Z,4.20
2019-01-14T06:57:10.513Z,3.80
2019-01-14T06:59:41.058Z,3.50
2019-01-14T07:02:10.691Z,4.10
2019-01-14T07:04:40.292Z,3.40
2019-01-14T07:07:09.972Z,3.30
2019-01-14T07:09:39.611Z,4.63
2019-01-14T07:12:10.504Z,3.63
2019-01-14T07:14:40.464Z,3.70
2019-01-14T07:17:10.078Z,4.97
2019-01-14T07:19:41.095Z,4.50
2019-01-14T07:22:11.661Z,3.43
2019-01-14T07:24:41.260Z,3.40
2019-01-14T07:27:10.783Z,3.50
2019-01-14T07:29:40.500Z,4.23
2019-01-14T07:32:10.240Z,4.20
2019-01-14T07:34:39.819Z,3.07
2019-01-14T07:37:09.427Z,3.80
2019-01-14T07:39:39.009Z,3.90
2019-01-14T07:42:08.723Z,3.63
2019-01-14T07:44:38.462Z,3.50
2019-01-14T07:47:08.144Z,3.67
2019-01-14T07:49:39.718Z,4.30
2019-01-14T07:52:09.388Z,3.97
2019-01-14T07:54:39.025Z,3.97
2019-01-14T07:57:08.576Z,3.20
2019-01-14T07:59:38.359Z,4.10
2019-01-14T08:02:08.090Z,3.90
2019-01-14T08:04:39.712Z,3.43
2019-01-14T08:07:09.432Z,4.00
2019-01-14T08:09:39.038Z,3.63
2019-01-14T08:12:08.703Z,3.10
2019-01-14T08:14:38.640Z,4.33
2019-01-14T08:17:08.215Z,4.00
2019-01-14T08:19:38.052Z,4.27
2019-01-14T08:22:08.914Z,4.10
2019-01-14T08:24:38.556Z,3.97
2019-01-14T08:27:08.410Z,3.80
2019-01-14T08:29:38.104Z,3.47
2019-01-14T08:32:07.828Z,3.60
2019-01-14T08:34:37.953Z,3.37
2019-01-14T08:37:08.524Z,3.57
2019-01-14T08:39:38.117Z,3.63
2019-01-14T08:42:08.819Z,3.77
2019-01-14T08:44:40.563Z,3.60
2019-01-14T08:47:10.535Z,4.20
2019-01-14T08:49:40.210Z,4.23
2019-01-14T08:52:12.781Z,4.00
2019-01-14T08:54:44.698Z,3.93
2019-01-14T08:57:15.292Z,3.23
2019-01-14T08:59:44.842Z,3.13
2019-01-14T09:02:14.624Z,4.00
2019-01-14T09:04:44.219Z,2.90
2019-01-14T09:07:13.874Z,3.03
2019-01-14T09:09:43.815Z,3.03
2019-01-14T09:12:13.341Z,3.47
2019-01-14T09:14:43.044Z,3.53
2019-01-14T09:17:12.825Z,3.10
2019-01-14T09:19:42.498Z,4.37
2019-01-14T09:22:12.121Z,3.23
2019-01-14T09:24:42.132Z,3.20
2019-01-14T09:27:11.783Z,3.70
2019-01-14T09:29:41.494Z,3.80
2019-01-14T09:32:11.131Z,3.63
2019-01-14T09:34:40.821Z,3.50
2019-01-14T09:37:10.406Z,3.90
2019-01-14T09:39:40.032Z,4.10
2019-01-14T09:42:09.746Z,3.80
2019-01-14T09:44:41.464Z,3.50
2019-01-14T09:47:11.135Z,3.77
2019-01-14T09:49:40.712Z,4.03
2019-01-14T09:52:10.697Z,2.80
2019-01-14T09:54:40.496Z,4.57
2019-01-14T09:57:10.083Z,4.00
2019-01-14T09:59:39.679Z,4.10
2019-01-14T10:02:09.328Z,3.60
2019-01-14T10:04:38.790Z,3.20
2019-01-14T10:07:08.586Z,3.73
2019-01-14T10:09:38.159Z,3.50
2019-01-14T10:12:07.929Z,4.60
2019-01-14T10:14:37.909Z,3.73
2019-01-14T10:17:07.691Z,4.13
2019-01-14T10:19:38.351Z,4.80
2019-01-14T10:22:08.060Z,4.07
2019-01-14T10:24:37.680Z,4.10
2019-01-14T10:27:07.427Z,4.50
2019-01-14T10:29:43.998Z,4.40
2019-01-14T10:32:13.977Z,4.10
2019-01-14T10:37:22.770Z,4.77
2019-01-14T10:39:49.968Z,5.13
2019-01-14T10:42:19.752Z,4.07
2019-01-14T10:44:49.575Z,4.60
2019-01-14T10:47:19.304Z,3.60
2019-01-14T10:49:50.244Z,3.90
2019-01-14T10:52:19.844Z,4.30
2019-01-14T10:54:49.699Z,3.93
2019-01-14T10:57:19.785Z,4.10
2019-01-14T10:59:49.431Z,4.23
2019-01-14T11:02:19.177Z,4.47
2019-01-14T11:04:48.823Z,3.80
2019-01-14T11:07:18.584Z,3.90
2019-01-14T11:09:48.290Z,3.70
2019-01-14T11:12:17.923Z,4.47
2019-01-14T11:14:47.618Z,4.67
2019-01-14T11:17:17.260Z,4.20
2019-01-14T11:19:46.812Z,3.97
2019-01-14T11:22:17.471Z,4.83
2019-01-14T11:24:50.581Z,4.60
2019-01-14T11:27:21.422Z,3.80
2019-01-14T11:29:55.514Z,4.17
2019-01-14T11:32:26.169Z,4.30
2019-01-14T11:34:55.803Z,5.37
2019-01-14T11:37:25.395Z,4.40
2019-01-14T11:39:55.114Z,4.80
2019-01-14T11:42:24.770Z,4.30
2019-01-14T11:44:54.530Z,4.77
2019-01-14T11:47:24.063Z,4.10
2019-01-14T11:49:53.632Z,4.10
2019-01-14T11:52:23.499Z,4.17
2019-01-14T11:54:54.228Z,9.90
2019-01-14T11:57:26.614Z,4.20
2019-01-14T11:59:56.343Z,4.60
2019-01-14T12:02:26.026Z,4.47
2019-01-14T12:04:55.858Z,3.23
2019-01-14T12:07:25.532Z,3.80
2019-01-14T12:09:55.446Z,4.17
2019-01-14T12:12:25.188Z,4.13
2019-01-14T12:14:54.779Z,4.10
2019-01-14T12:17:24.389Z,3.90
2019-01-14T12:19:54.109Z,3.97
2019-01-14T12:22:24.164Z,3.63
2019-01-14T12:24:53.932Z,4.17
2019-01-14T12:27:23.655Z,3.70
2019-01-14T12:29:53.466Z,4.40
2019-01-14T12:32:23.040Z,3.90
2019-01-14T12:34:52.595Z,5.10
2019-01-14T12:37:22.233Z,4.40
2019-01-14T12:39:51.865Z,4.53
2019-01-14T12:42:22.421Z,3.90
2019-01-14T12:44:54.131Z,4.80
2019-01-14T12:47:24.764Z,4.50
2019-01-14T12:49:54.264Z,5.07
2019-01-14T12:52:23.877Z,5.03
2019-01-14T12:54:53.471Z,4.90
2019-01-14T12:57:29.605Z,4.90
2019-01-14T12:59:59.336Z,5.07
2019-01-14T13:02:29.092Z,5.27
2019-01-14T13:04:58.637Z,4.40
2019-01-14T13:07:28.306Z,5.30
2019-01-14T13:09:57.827Z,4.90
2019-01-14T13:12:28.208Z,4.50
2019-01-14T13:14:58.150Z,4.63
2019-01-14T13:17:27.827Z,4.80
2019-01-14T13:19:57.731Z,4.60
2019-01-14T13:22:27.495Z,4.80
2019-01-14T13:24:57.382Z,5.30
2019-01-14T13:27:27.151Z,4.93
2019-01-14T13:29:56.964Z,4.80
2019-01-14T13:32:27.027Z,5.50
2019-01-14T13:34:57.205Z,4.20
2019-01-14T13:37:26.890Z,4.93
2019-01-14T13:39:56.630Z,6.20
2019-01-14T13:42:26.510Z,5.27
2019-01-14T13:44:56.357Z,6.10
2019-01-14T13:47:27.489Z,6.57
2019-01-14T13:49:57.274Z,4.27
2019-01-14T13:52:26.949Z,3.60
2019-01-14T13:54:56.602Z,4.17
2019-01-14T13:57:26.413Z,4.33
2019-01-14T13:59:56.117Z,2.23
2019-01-14T14:02:26.099Z,1.60
2019-01-14T14:04:55.862Z,1.50
2019-01-14T14:07:27.668Z,2.63
2019-01-14T14:09:57.391Z,1.30
2019-01-14T14:12:28.344Z,1.50
2019-01-14T14:14:58.031Z,1.77
2019-01-14T14:17:28.128Z,1.40
2019-01-14T14:19:57.899Z,2.10
2019-01-14T14:22:27.667Z,3.30
2019-01-14T14:24:57.425Z,2.20
2019-01-14T14:27:27.382Z,32.23
2019-01-14T14:29:57.101Z,2.70
2019-01-14T14:32:26.871Z,2.00
2019-01-14T14:34:56.657Z,2.90
2019-01-14T14:37:26.358Z,2.22
2019-01-14T14:39:57.109Z,1.90
2019-01-14T14:42:26.868Z,2.65
2019-01-14T14:44:57.048Z,1.70
2019-01-14T14:47:27.798Z,2.87
2019-01-14T14:49:57.634Z,3.15
2019-01-14T14:52:28.452Z,3.00
2019-01-14T14:54:58.266Z,2.33
2019-01-14T14:57:28.865Z,2.20
2019-01-14T14:59:58.693Z,2.50
2019-01-14T15:02:28.559Z,2.58
2019-01-14T15:04:58.211Z,5.20
2019-01-14T15:07:27.981Z,3.30
2019-01-14T15:09:57.743Z,2.77
2019-01-14T15:12:27.638Z,2.37
2019-01-14T15:14:57.576Z,2.27
2019-01-14T15:17:27.603Z,2.55
2019-01-14T15:19:57.181Z,3.60
2019-01-14T15:22:27.014Z,3.50
2019-01-14T15:24:56.734Z,2.83
2019-01-14T15:27:26.749Z,2.30
2019-01-14T15:29:56.429Z,3.13
2019-01-14T15:32:26.139Z,3.20
2019-01-14T15:34:55.811Z,2.73
2019-01-14T15:37:25.902Z,3.98
2019-01-14T15:39:55.565Z,2.90
2019-01-14T15:42:25.325Z,2.70
2019-01-14T15:44:55.229Z,2.60
2019-01-14T15:47:26.011Z,2.72
2019-01-14T15:49:56.026Z,2.52
2019-01-14T15:52:25.653Z,3.72
2019-01-14T15:54:55.345Z,3.15
2019-01-14T15:57:25.109Z,3.70
2019-01-14T15:59:54.823Z,3.05
2019-01-14T16:02:24.487Z,3.15
2019-01-14T16:04:54.042Z,3.02
2019-01-14T16:07:23.988Z,3.60
2019-01-14T16:09:54.715Z,3.42
2019-01-14T16:12:24.433Z,3.30
2019-01-14T16:14:54.055Z,3.37
2019-01-14T16:17:23.842Z,4.50
2019-01-14T16:19:53.431Z,4.35
2019-01-14T16:22:30.491Z,4.65
2019-01-14T16:25:00.236Z,4.45
2019-01-14T16:27:30.959Z,3.85
2019-01-14T16:30:01.621Z,4.53
2019-01-14T16:32:31.683Z,4.10
2019-01-14T16:35:01.759Z,3.90
2019-01-14T16:37:31.588Z,4.37
2019-01-14T16:40:01.385Z,4.40
2019-01-14T16:42:30.972Z,4.08
2019-01-14T16:45:00.839Z,5.70
2019-01-14T16:47:30.741Z,4.53
2019-01-14T16:50:00.420Z,5.53
2019-01-14T16:52:30.125Z,5.67
2019-01-14T16:54:59.782Z,5.08
2019-01-14T16:57:29.924Z,4.90
2019-01-14T17:00:00.773Z,4.80
2019-01-14T17:02:30.446Z,5.45
2019-01-14T17:05:01.139Z,6.00
2019-01-14T17:07:30.826Z,6.03
2019-01-14T17:10:00.547Z,5.95
2019-01-14T17:12:30.340Z,5.35
2019-01-14T17:14:59.987Z,5.15
2019-01-14T17:17:29.654Z,5.28
2019-01-14T17:19:59.318Z,4.87
2019-01-14T17:22:28.999Z,5.15
2019-01-14T17:24:59.657Z,4.95
2019-01-14T17:27:29.282Z,4.80
2019-01-14T17:29:59.043Z,5.28
2019-01-14T17:32:28.983Z,4.75
2019-01-14T17:34:59.722Z,5.78
2019-01-14T17:37:29.349Z,5.22
2019-01-14T17:39:59.387Z,4.75
2019-01-14T17:42:29.371Z,5.05
2019-01-14T17:44:59.278Z,5.85
2019-01-14T17:47:28.978Z,5.83
2019-01-14T17:49:58.763Z,5.58
2019-01-14T17:52:28.404Z,5.55
2019-01-14T17:55:00.304Z,5.42
2019-01-14T17:57:31.031Z,5.33
2019-01-14T18:00:02.243Z,5.30
2019-01-14T18:02:32.012Z,5.55
2019-01-14T18:05:01.903Z,5.75
2019-01-14T18:07:31.535Z,5.22
2019-01-14T18:10:02.243Z,6.10
2019-01-14T18:12:31.978Z,6.55
2019-01-14T18:15:01.584Z,6.33
2019-01-14T18:17:33.245Z,5.83
2019-01-14T18:20:02.483Z,5.50
2019-01-14T18:22:33.220Z,5.05
2019-01-14T18:25:02.929Z,5.65
2019-01-14T18:27:32.642Z,6.10
2019-01-14T18:30:02.207Z,5.83
2019-01-14T18:32:31.841Z,4.90
2019-01-14T18:35:01.453Z,5.08
2019-01-14T18:37:31.164Z,5.70
2019-01-14T18:40:01.096Z,5.05
2019-01-14T18:42:31.082Z,5.15
2019-01-14T18:45:01.145Z,6.45
2019-01-14T18:47:31.057Z,5.22
2019-01-14T18:50:00.690Z,5.50
2019-01-14T18:52:30.533Z,5.45
2019-01-14T18:55:00.202Z,4.75
2019-01-14T18:57:29.861Z,5.95
2019-01-14T18:59:59.680Z,6.60
2019-01-14T19:02:29.286Z,5.70
2019-01-14T19:04:58.972Z,5.90
2019-01-14T19:07:28.682Z,6.50
2019-01-14T19:09:59.422Z,7.00
2019-01-14T19:12:29.322Z,6.70
2019-01-14T19:15:00.421Z,6.67
2019-01-14T19:17:30.181Z,6.72
2019-01-14T19:20:00.415Z,6.90
2019-01-14T19:22:30.059Z,6.40
2019-01-14T19:24:59.662Z,5.92
2019-01-14T19:27:29.330Z,6.90
2019-01-14T19:29:58.874Z,6.50
2019-01-14T19:32:28.735Z,6.90
2019-01-14T19:34:58.274Z,6.80
2019-01-14T19:37:32.992Z,7.12
2019-01-14T19:40:02.911Z,5.70
2019-01-14T19:42:32.536Z,7.10
2019-01-14T19:45:03.438Z,6.57
2019-01-14T19:47:33.040Z,6.50
2019-01-14T19:50:02.702Z,7.70
2019-01-14T19:52:32.441Z,7.47
2019-01-14T19:55:03.056Z,6.95
2019-01-14T19:57:32.739Z,7.85
2019-01-14T20:02:37.644Z,8.13
2019-01-14T20:05:08.035Z,6.27
2019-01-14T20:07:37.535Z,6.30
2019-01-14T20:10:09.839Z,6.80
2019-01-14T20:12:39.765Z,7.30
2019-01-14T20:15:11.348Z,7.50
2019-01-14T20:17:40.975Z,7.10
2019-01-14T20:20:10.875Z,6.27
2019-01-14T20:22:40.474Z,8.00
2019-01-14T20:25:10.815Z,7.67
2019-01-14T20:27:40.476Z,7.20
2019-01-14T20:30:38.391Z,8.57
2019-01-14T20:33:08.904Z,7.67
2019-01-14T20:35:38.894Z,9.30
2019-01-14T20:38:08.758Z,8.80
2019-01-14T20:40:38.244Z,8.23
2019-01-14T20:43:08.484Z,7.97
2019-01-14T20:45:38.344Z,8.20
2019-01-14T20:48:08.011Z,8.73
2019-01-14T20:50:37.879Z,9.08
2019-01-14T20:53:13.606Z,8.20
2019-01-14T20:55:40.518Z,8.80
2019-01-14T20:58:11.175Z,8.80
2019-01-14T21:00:40.855Z,8.30
2019-01-14T21:03:11.469Z,9.43
2019-01-14T21:05:41.446Z,8.43
2019-01-14T21:08:11.082Z,8.65
2019-01-14T21:10:40.754Z,7.70
2019-01-14T21:13:10.551Z,7.90
2019-01-14T21:15:41.179Z,6.97
2019-01-14T21:18:10.975Z,9.18
2019-01-14T21:20:40.632Z,7.20
2019-01-14T21:23:10.469Z,8.70
2019-01-14T21:25:40.152Z,8.10
2019-01-14T21:28:10.014Z,7.30
2019-01-14T21:30:39.944Z,6.40
2019-01-14T21:33:10.439Z,5.65
2019-01-14T21:35:40.087Z,6.03
2019-01-14T21:38:10.095Z,5.95
2019-01-14T21:40:39.848Z,5.90
2019-01-14T21:43:10.523Z,6.55
2019-01-14T21:45:40.404Z,7.45
2019-01-14T21:48:17.075Z,8.33
2019-01-14T21:50:44.710Z,8.65
2019-01-14T21:53:14.692Z,7.90
2019-01-14T21:55:44.487Z,7.70
2019-01-14T21:58:14.195Z,8.20
2019-01-14T22:00:45.939Z,8.00
2019-01-14T22:03:15.746Z,9.10
2019-01-14T22:05:45.660Z,8.20
2019-01-14T22:08:15.253Z,8.58
2019-01-14T22:10:44.892Z,9.00
2019-01-14T22:13:14.616Z,8.43
2019-01-14T22:15:44.549Z,9.23
2019-01-14T22:18:14.458Z,8.45
2019-01-14T22:20:45.090Z,8.80
2019-01-14T22:23:15.789Z,8.10
2019-01-14T22:25:45.458Z,8.00
2019-01-14T22:28:15.187Z,8.90
2019-01-14T22:30:45.983Z,8.05
2019-01-14T22:33:15.721Z,8.95
2019-01-14T22:35:45.435Z,8.98
2019-01-14T22:38:15.285Z,8.00
2019-01-14T22:40:44.924Z,8.50
2019-01-14T22:43:14.476Z,8.38
2019-01-14T22:45:44.308Z,7.83
2019-01-14T22:48:13.918Z,8.13
2019-01-14T22:50:43.960Z,7.77
2019-01-14T22:53:13.572Z,7.42
2019-01-14T22:55:43.224Z,6.87
2019-01-14T22:58:13.971Z,8.40
2019-01-14T23:01:07.780Z,7.10
2019-01-14T23:03:37.923Z,7.37
2019-01-14T23:06:07.556Z,7.30
2019-01-14T23:08:37.320Z,8.10
2019-01-14T23:11:07.106Z,7.50
2019-01-14T23:13:37.669Z,6.93
2019-01-14T23:16:07.331Z,7.05
2019-01-14T23:18:36.996Z,7.83
2019-01-14T23:21:06.779Z,7.60
2019-01-14T23:23:36.334Z,7.47
2019-01-14T23:26:06.570Z,7.12
2019-01-14T23:28:36.195Z,8.18
2019-01-14T23:31:06.213Z,10.93
2019-01-14T23:33:35.825Z,8.23
2019-01-14T23:36:05.800Z,6.87
2019-01-14T23:38:43.282Z,7.33
2019-01-14T23:41:13.131Z,6.90
2019-01-14T23:43:42.715Z,6.80
2019-01-14T23:46:15.017Z,6.67
2019-01-14T23:48:48.050Z,5.70
2019-01-14T23:51:21.124Z,5.47
2019-01-14T23:53:50.817Z,5.50
2019-01-14T23:56:20.462Z,5.20
2019-01-14T23:58:50.129Z,5.55
